sensor_id;sensor_type;location;lat;lon;timestamp;temperature;humidity
2407;DHT22;37709;53.480;9.688;2023-04-10T00:00:10;3.70;99.90
2407;DHT22;37709;53.480;9.688;2023-04-10T00:02:37;3.70;99.90
2407;DHT22;37709;53.480;9.688;2023-04-10T00:05:05;3.60;99.90
2407;DHT22;37709;53.480;9.688;2023-04-10T00:07:34;3.60;99.90
2407;DHT22;37709;53.480;9.688;2023-04-10T00:10:01;3.60;99.90
2407;DHT22;37709;53.480;9.688;2023-04-10T00:12:29;3.50;99.90
2407;DHT22;37709;53.480;9.688;2023-04-10T00:14:56;3.40;99.90
2407;DHT22;37709;53.480;9.688;2023-04-10T00:17:24;3.40;99.90
2407;DHT22;37709;53.480;9.688;2023-04-10T00:19:51;3.30;99.90
2407;DHT22;37709;53.480;9.688;2023-04-10T00:22:19;3.20;99.90
2407;DHT22;37709;53.480;9.688;2023-04-10T00:24:47;3.10;99.90
2407;DHT22;37709;53.480;9.688;2023-04-10T00:27:14;3.10;99.90
2407;DHT22;37709;53.480;9.688;2023-04-10T00:29:41;3.00;99.90
2407;DHT22;37709;53.480;9.688;2023-04-10T00:32:08;2.90;99.90
2407;DHT22;37709;53.480;9.688;2023-04-10T00:34:36;2.90;99.90
2407;DHT22;37709;53.480;9.688;2023-04-10T00:37:03;2.90;99.90
2407;DHT22;37709;53.480;9.688;2023-04-10T00:39:30;2.90;99.90
2407;DHT22;37709;53.480;9.688;2023-04-10T00:41:58;2.90;99.90
2407;DHT22;37709;53.480;9.688;2023-04-10T00:44:27;2.90;99.90
2407;DHT22;37709;53.480;9.688;2023-04-10T00:46:55;2.80;99.90
2407;DHT22;37709;53.480;9.688;2023-04-10T00:49:22;2.80;99.90
2407;DHT22;37709;53.480;9.688;2023-04-10T00:51:50;2.80;99.90
2407;DHT22;37709;53.480;9.688;2023-04-10T00:54:18;2.80;99.90
2407;DHT22;37709;53.480;9.688;2023-04-10T00:56:46;2.80;99.90
2407;DHT22;37709;53.480;9.688;2023-04-10T00:59:15;2.80;99.90
2407;DHT22;37709;53.480;9.688;2023-04-10T01:01:44;2.90;99.90
2407;DHT22;37709;53.480;9.688;2023-04-10T01:04:12;2.90;99.90
2407;DHT22;37709;53.480;9.688;2023-04-10T01:07:09;3.30;99.90
2407;DHT22;37709;53.480;9.688;2023-04-10T01:09:45;3.50;99.90
2407;DHT22;37709;53.480;9.688;2023-04-10T01:15:10;3.50;99.90
2407;DHT22;37709;53.480;9.688;2023-04-10T01:20:15;3.50;99.90
2407;DHT22;37709;53.480;9.688;2023-04-10T01:25:56;3.90;99.90
2407;DHT22;37709;53.480;9.688;2023-04-10T01:28:50;4.30;99.90
2407;DHT22;37709;53.480;9.688;2023-04-10T01:31:26;4.40;99.90
2407;DHT22;37709;53.480;9.688;2023-04-10T01:33:59;4.60;99.90
2407;DHT22;37709;53.480;9.688;2023-04-10T01:36:33;4.70;99.90
2407;DHT22;37709;53.480;9.688;2023-04-10T01:39:01;4.80;99.90
2407;DHT22;37709;53.480;9.688;2023-04-10T01:41:32;5.00;99.90
2407;DHT22;37709;53.480;9.688;2023-04-10T01:44:01;5.00;99.90
2407;DHT22;37709;53.480;9.688;2023-04-10T01:46:30;5.10;99.90
2407;DHT22;37709;53.480;9.688;2023-04-10T01:49:00;5.10;99.90
2407;DHT22;37709;53.480;9.688;2023-04-10T01:51:30;5.30;99.90
2407;DHT22;37709;53.480;9.688;2023-04-10T01:54:01;5.30;99.90
2407;DHT22;37709;53.480;9.688;2023-04-10T01:56:33;5.30;99.90
2407;DHT22;37709;53.480;9.688;2023-04-10T01:59:01;5.40;99.90
2407;DHT22;37709;53.480;9.688;2023-04-10T02:01:29;5.40;99.90
2407;DHT22;37709;53.480;9.688;2023-04-10T02:03:58;5.40;99.90
2407;DHT22;37709;53.480;9.688;2023-04-10T02:06:33;5.40;99.90
2407;DHT22;37709;53.480;9.688;2023-04-10T02:09:13;5.30;99.90
2407;DHT22;37709;53.480;9.688;2023-04-10T02:14:30;5.20;99.90
2407;DHT22;37709;53.480;9.688;2023-04-10T02:17:00;5.20;99.90
2407;DHT22;37709;53.480;9.688;2023-04-10T02:19:30;5.20;99.90
2407;DHT22;37709;53.480;9.688;2023-04-10T02:21:58;5.20;99.90
2407;DHT22;37709;53.480;9.688;2023-04-10T02:24:26;5.20;99.90
2407;DHT22;37709;53.480;9.688;2023-04-10T02:26:53;5.10;99.90
2407;DHT22;37709;53.480;9.688;2023-04-10T02:29:22;5.20;99.90
2407;DHT22;37709;53.480;9.688;2023-04-10T02:31:49;5.20;99.90
2407;DHT22;37709;53.480;9.688;2023-04-10T02:34:18;5.20;99.90
2407;DHT22;37709;53.480;9.688;2023-04-10T02:36:46;5.20;99.90
2407;DHT22;37709;53.480;9.688;2023-04-10T02:39:13;5.20;99.90
2407;DHT22;37709;53.480;9.688;2023-04-10T02:41:50;5.10;99.90
2407;DHT22;37709;53.480;9.688;2023-04-10T02:44:17;5.10;99.90
2407;DHT22;37709;53.480;9.688;2023-04-10T02:46:45;5.10;99.90
2407;DHT22;37709;53.480;9.688;2023-04-10T02:49:13;5.10;99.90
2407;DHT22;37709;53.480;9.688;2023-04-10T02:51:41;5.00;99.90
2407;DHT22;37709;53.480;9.688;2023-04-10T02:54:09;5.10;99.90
2407;DHT22;37709;53.480;9.688;2023-04-10T02:56:38;5.00;99.90
2407;DHT22;37709;53.480;9.688;2023-04-10T02:59:06;5.00;99.90
2407;DHT22;37709;53.480;9.688;2023-04-10T03:01:34;5.00;99.90
2407;DHT22;37709;53.480;9.688;2023-04-10T03:04:01;5.00;99.90
2407;DHT22;37709;53.480;9.688;2023-04-10T03:06:35;4.90;99.90
2407;DHT22;37709;53.480;9.688;2023-04-10T03:09:05;4.90;99.90
2407;DHT22;37709;53.480;9.688;2023-04-10T03:11:33;4.90;99.90
2407;DHT22;37709;53.480;9.688;2023-04-10T03:14:00;4.90;99.90
2407;DHT22;37709;53.480;9.688;2023-04-10T03:16:28;4.90;99.90
2407;DHT22;37709;53.480;9.688;2023-04-10T03:18:56;4.90;99.90
2407;DHT22;37709;53.480;9.688;2023-04-10T03:21:24;4.80;99.90
2407;DHT22;37709;53.480;9.688;2023-04-10T03:23:51;4.70;99.90
2407;DHT22;37709;53.480;9.688;2023-04-10T03:26:19;4.70;99.90
2407;DHT22;37709;53.480;9.688;2023-04-10T03:28:48;4.60;99.90
2407;DHT22;37709;53.480;9.688;2023-04-10T03:31:15;4.60;99.90
2407;DHT22;37709;53.480;9.688;2023-04-10T03:33:44;4.60;99.90
2407;DHT22;37709;53.480;9.688;2023-04-10T03:36:12;4.50;99.90
2407;DHT22;37709;53.480;9.688;2023-04-10T03:38:40;4.50;99.90
2407;DHT22;37709;53.480;9.688;2023-04-10T03:41:08;4.50;99.90
2407;DHT22;37709;53.480;9.688;2023-04-10T03:43:38;4.60;99.90
2407;DHT22;37709;53.480;9.688;2023-04-10T03:46:06;4.50;99.90
2407;DHT22;37709;53.480;9.688;2023-04-10T03:48:40;4.60;99.90
2407;DHT22;37709;53.480;9.688;2023-04-10T03:51:07;4.70;99.90
2407;DHT22;37709;53.480;9.688;2023-04-10T03:53:34;4.60;99.90
2407;DHT22;37709;53.480;9.688;2023-04-10T03:56:07;4.60;99.90
2407;DHT22;37709;53.480;9.688;2023-04-10T03:58:36;4.60;99.90
2407;DHT22;37709;53.480;9.688;2023-04-10T04:01:04;4.60;99.90
2407;DHT22;37709;53.480;9.688;2023-04-10T04:03:51;4.60;99.90
2407;DHT22;37709;53.480;9.688;2023-04-10T04:06:47;4.50;99.90
2407;DHT22;37709;53.480;9.688;2023-04-10T04:09:33;4.60;99.90
2407;DHT22;37709;53.480;9.688;2023-04-10T04:12:14;4.60;99.90
2407;DHT22;37709;53.480;9.688;2023-04-10T04:15:02;4.60;99.90
2407;DHT22;37709;53.480;9.688;2023-04-10T04:17:50;4.60;99.90
2407;DHT22;37709;53.480;9.688;2023-04-10T04:20:37;4.50;99.90
2407;DHT22;37709;53.480;9.688;2023-04-10T04:23:27;4.50;99.90
2407;DHT22;37709;53.480;9.688;2023-04-10T04:26:13;4.40;99.90
2407;DHT22;37709;53.480;9.688;2023-04-10T04:28:59;4.40;99.90
2407;DHT22;37709;53.480;9.688;2023-04-10T04:31:46;4.40;99.90
2407;DHT22;37709;53.480;9.688;2023-04-10T04:34:42;4.40;99.90
2407;DHT22;37709;53.480;9.688;2023-04-10T04:37:21;4.50;99.90
2407;DHT22;37709;53.480;9.688;2023-04-10T04:40:15;4.60;99.90
2407;DHT22;37709;53.480;9.688;2023-04-10T04:42:58;4.60;99.90
2407;DHT22;37709;53.480;9.688;2023-04-10T04:45:58;4.60;99.90
2407;DHT22;37709;53.480;9.688;2023-04-10T04:48:58;4.70;99.90
2407;DHT22;37709;53.480;9.688;2023-04-10T04:51:41;4.70;99.90
2407;DHT22;37709;53.480;9.688;2023-04-10T04:54:23;4.70;99.90
2407;DHT22;37709;53.480;9.688;2023-04-10T04:57:08;4.80;99.90
2407;DHT22;37709;53.480;9.688;2023-04-10T05:00:08;4.90;99.90
2407;DHT22;37709;53.480;9.688;2023-04-10T05:03:02;5.10;99.90
2407;DHT22;37709;53.480;9.688;2023-04-10T05:05:54;5.30;99.90
2407;DHT22;37709;53.480;9.688;2023-04-10T05:08:55;5.50;99.90
2407;DHT22;37709;53.480;9.688;2023-04-10T05:11:30;5.60;99.90
2407;DHT22;37709;53.480;9.688;2023-04-10T05:14:19;5.70;99.90
2407;DHT22;37709;53.480;9.688;2023-04-10T05:16:59;5.80;99.90
2407;DHT22;37709;53.480;9.688;2023-04-10T05:19:59;6.00;99.90
2407;DHT22;37709;53.480;9.688;2023-04-10T05:22:45;6.20;99.90
2407;DHT22;37709;53.480;9.688;2023-04-10T05:25:34;6.20;99.90
2407;DHT22;37709;53.480;9.688;2023-04-10T05:28:17;6.40;99.90
2407;DHT22;37709;53.480;9.688;2023-04-10T05:31:03;6.60;99.90
2407;DHT22;37709;53.480;9.688;2023-04-10T05:33:46;6.80;99.90
2407;DHT22;37709;53.480;9.688;2023-04-10T05:36:32;6.90;99.90
2407;DHT22;37709;53.480;9.688;2023-04-10T05:39:16;7.10;99.90
2407;DHT22;37709;53.480;9.688;2023-04-10T05:42:01;7.30;99.90
2407;DHT22;37709;53.480;9.688;2023-04-10T05:44:43;7.40;99.90
2407;DHT22;37709;53.480;9.688;2023-04-10T05:47:30;7.50;99.90
2407;DHT22;37709;53.480;9.688;2023-04-10T05:50:12;7.60;99.90
2407;DHT22;37709;53.480;9.688;2023-04-10T05:52:58;7.70;99.90
2407;DHT22;37709;53.480;9.688;2023-04-10T05:55:44;7.80;99.90
2407;DHT22;37709;53.480;9.688;2023-04-10T05:58:25;7.90;99.90
2407;DHT22;37709;53.480;9.688;2023-04-10T06:01:23;8.00;99.90
2407;DHT22;37709;53.480;9.688;2023-04-10T06:04:00;8.00;99.90
2407;DHT22;37709;53.480;9.688;2023-04-10T06:06:32;8.00;99.90
2407;DHT22;37709;53.480;9.688;2023-04-10T06:08:59;8.10;99.90
2407;DHT22;37709;53.480;9.688;2023-04-10T06:11:27;8.20;99.90
2407;DHT22;37709;53.480;9.688;2023-04-10T06:13:56;8.30;99.90
2407;DHT22;37709;53.480;9.688;2023-04-10T06:16:31;8.40;99.90
2407;DHT22;37709;53.480;9.688;2023-04-10T06:18:59;8.50;99.90
2407;DHT22;37709;53.480;9.688;2023-04-10T06:21:27;8.70;99.90
2407;DHT22;37709;53.480;9.688;2023-04-10T06:23:55;8.90;99.90
2407;DHT22;37709;53.480;9.688;2023-04-10T06:26:23;9.00;99.90
2407;DHT22;37709;53.480;9.688;2023-04-10T06:28:51;9.20;99.90
2407;DHT22;37709;53.480;9.688;2023-04-10T06:31:20;9.40;99.90
2407;DHT22;37709;53.480;9.688;2023-04-10T06:33:50;9.60;99.90
2407;DHT22;37709;53.480;9.688;2023-04-10T06:36:18;9.80;99.90
2407;DHT22;37709;53.480;9.688;2023-04-10T06:38:56;9.90;99.90
2407;DHT22;37709;53.480;9.688;2023-04-10T06:41:24;10.10;99.90
2407;DHT22;37709;53.480;9.688;2023-04-10T06:43:54;10.30;99.90
2407;DHT22;37709;53.480;9.688;2023-04-10T06:46:21;10.50;99.90
2407;DHT22;37709;53.480;9.688;2023-04-10T06:48:48;10.60;99.90
2407;DHT22;37709;53.480;9.688;2023-04-10T06:51:16;10.70;99.90
2407;DHT22;37709;53.480;9.688;2023-04-10T06:53:43;11.00;99.90
2407;DHT22;37709;53.480;9.688;2023-04-10T06:56:10;11.60;99.90
2407;DHT22;37709;53.480;9.688;2023-04-10T06:58:38;12.30;99.90
2407;DHT22;37709;53.480;9.688;2023-04-10T07:01:05;13.10;98.70
2407;DHT22;37709;53.480;9.688;2023-04-10T07:03:33;13.20;97.20
2407;DHT22;37709;53.480;9.688;2023-04-10T07:06:00;13.20;96.70
2407;DHT22;37709;53.480;9.688;2023-04-10T07:08:29;13.30;96.20
2407;DHT22;37709;53.480;9.688;2023-04-10T07:10:57;13.80;95.50
2407;DHT22;37709;53.480;9.688;2023-04-10T07:13:25;14.30;94.90
2407;DHT22;37709;53.480;9.688;2023-04-10T07:15:53;15.00;93.40
2407;DHT22;37709;53.480;9.688;2023-04-10T07:18:21;15.60;92.30
2407;DHT22;37709;53.480;9.688;2023-04-10T07:20:50;16.60;91.10
2407;DHT22;37709;53.480;9.688;2023-04-10T07:23:17;17.40;86.90
2407;DHT22;37709;53.480;9.688;2023-04-10T07:25:45;17.80;83.90
2407;DHT22;37709;53.480;9.688;2023-04-10T07:28:13;18.00;82.00
2407;DHT22;37709;53.480;9.688;2023-04-10T07:30:40;18.60;79.00
2407;DHT22;37709;53.480;9.688;2023-04-10T07:33:07;18.60;76.80
2407;DHT22;37709;53.480;9.688;2023-04-10T07:35:35;19.20;75.20
2407;DHT22;37709;53.480;9.688;2023-04-10T07:38:03;19.30;72.10
2407;DHT22;37709;53.480;9.688;2023-04-10T07:40:31;18.90;72.10
2407;DHT22;37709;53.480;9.688;2023-04-10T07:42:58;19.50;71.80
2407;DHT22;37709;53.480;9.688;2023-04-10T07:45:25;20.20;70.00
2407;DHT22;37709;53.480;9.688;2023-04-10T07:47:54;20.80;68.30
2407;DHT22;37709;53.480;9.688;2023-04-10T07:50:22;21.10;66.80
2407;DHT22;37709;53.480;9.688;2023-04-10T07:52:50;20.50;65.10
2407;DHT22;37709;53.480;9.688;2023-04-10T07:55:17;20.60;64.90
2407;DHT22;37709;53.480;9.688;2023-04-10T07:57:45;21.30;64.40
2407;DHT22;37709;53.480;9.688;2023-04-10T08:00:13;22.30;62.30
2407;DHT22;37709;53.480;9.688;2023-04-10T08:02:41;22.50;60.30
2407;DHT22;37709;53.480;9.688;2023-04-10T08:05:09;23.10;60.00
2407;DHT22;37709;53.480;9.688;2023-04-10T08:07:37;23.90;58.10
2407;DHT22;37709;53.480;9.688;2023-04-10T08:10:05;24.80;57.40
2407;DHT22;37709;53.480;9.688;2023-04-10T08:12:33;24.60;54.20
2407;DHT22;37709;53.480;9.688;2023-04-10T08:15:00;23.80;54.60
2407;DHT22;37709;53.480;9.688;2023-04-10T08:17:28;23.00;54.90
2407;DHT22;37709;53.480;9.688;2023-04-10T08:19:56;22.50;55.30
2407;DHT22;37709;53.480;9.688;2023-04-10T08:22:23;22.80;56.20
2407;DHT22;37709;53.480;9.688;2023-04-10T08:24:51;23.30;55.00
2407;DHT22;37709;53.480;9.688;2023-04-10T08:27:18;23.50;54.20
2407;DHT22;37709;53.480;9.688;2023-04-10T08:29:46;23.00;54.10
2407;DHT22;37709;53.480;9.688;2023-04-10T08:32:13;23.70;54.30
2407;DHT22;37709;53.480;9.688;2023-04-10T08:34:41;23.80;53.10
2407;DHT22;37709;53.480;9.688;2023-04-10T08:37:09;24.40;52.60
2407;DHT22;37709;53.480;9.688;2023-04-10T08:39:38;24.40;52.00
2407;DHT22;37709;53.480;9.688;2023-04-10T08:42:07;25.10;50.80
2407;DHT22;37709;53.480;9.688;2023-04-10T08:44:34;25.90;49.70
2407;DHT22;37709;53.480;9.688;2023-04-10T12:16:24;25.80;48.70
2407;DHT22;37709;53.480;9.688;2023-04-10T12:18:52;26.20;40.40
2407;DHT22;37709;53.480;9.688;2023-04-10T12:21:20;26.10;40.60
2407;DHT22;37709;53.480;9.688;2023-04-10T12:23:47;26.30;40.30
2407;DHT22;37709;53.480;9.688;2023-04-10T12:26:16;26.70;39.80
2407;DHT22;37709;53.480;9.688;2023-04-10T12:28:52;26.60;39.70
2407;DHT22;37709;53.480;9.688;2023-04-10T12:33:54;26.80;40.50
2407;DHT22;37709;53.480;9.688;2023-04-10T12:36:25;28.00;38.00
2407;DHT22;37709;53.480;9.688;2023-04-10T12:38:56;27.70;37.80
2407;DHT22;37709;53.480;9.688;2023-04-10T12:41:26;26.60;38.20
2407;DHT22;37709;53.480;9.688;2023-04-10T12:44:12;27.10;39.40
2407;DHT22;37709;53.480;9.688;2023-04-10T12:46:40;27.60;39.60
2407;DHT22;37709;53.480;9.688;2023-04-10T12:49:15;27.80;38.70
2407;DHT22;37709;53.480;9.688;2023-04-10T12:51:50;26.90;40.00
2407;DHT22;37709;53.480;9.688;2023-04-10T12:54:32;26.40;40.30
2407;DHT22;37709;53.480;9.688;2023-04-10T12:57:00;25.80;41.40
2407;DHT22;37709;53.480;9.688;2023-04-10T12:59:29;24.80;36.30
2407;DHT22;37709;53.480;9.688;2023-04-10T13:01:57;24.40;36.90
2407;DHT22;37709;53.480;9.688;2023-04-10T13:04:25;24.10;37.30
2407;DHT22;37709;53.480;9.688;2023-04-10T13:06:53;24.00;37.30
2407;DHT22;37709;53.480;9.688;2023-04-10T13:09:20;24.60;37.40
2407;DHT22;37709;53.480;9.688;2023-04-10T13:11:50;25.10;37.20
2407;DHT22;37709;53.480;9.688;2023-04-10T13:14:18;24.70;36.80
2407;DHT22;37709;53.480;9.688;2023-04-10T13:16:45;24.60;37.10
2407;DHT22;37709;53.480;9.688;2023-04-10T13:19:13;23.80;37.60
2407;DHT22;37709;53.480;9.688;2023-04-10T13:21:40;23.10;37.90
2407;DHT22;37709;53.480;9.688;2023-04-10T13:24:07;22.80;38.90
2407;DHT22;37709;53.480;9.688;2023-04-10T13:26:35;22.30;38.90
2407;DHT22;37709;53.480;9.688;2023-04-10T13:29:02;22.20;39.40
2407;DHT22;37709;53.480;9.688;2023-04-10T13:31:29;22.70;39.30
2407;DHT22;37709;53.480;9.688;2023-04-10T13:33:56;22.70;39.80
2407;DHT22;37709;53.480;9.688;2023-04-10T13:36:23;23.00;39.60
2407;DHT22;37709;53.480;9.688;2023-04-10T13:38:52;22.60;39.40
2407;DHT22;37709;53.480;9.688;2023-04-10T13:41:20;22.80;39.90
2407;DHT22;37709;53.480;9.688;2023-04-10T13:43:48;22.60;38.90
2407;DHT22;37709;53.480;9.688;2023-04-10T13:46:15;22.30;39.40
2407;DHT22;37709;53.480;9.688;2023-04-10T13:48:43;22.20;39.70
2407;DHT22;37709;53.480;9.688;2023-04-10T13:51:10;22.70;40.10
2407;DHT22;37709;53.480;9.688;2023-04-10T13:53:38;22.90;40.10
2407;DHT22;37709;53.480;9.688;2023-04-10T13:56:05;23.40;40.10
2407;DHT22;37709;53.480;9.688;2023-04-10T13:58:33;23.30;39.50
2407;DHT22;37709;53.480;9.688;2023-04-10T14:01:00;23.10;39.90
2407;DHT22;37709;53.480;9.688;2023-04-10T14:03:28;22.80;40.30
2407;DHT22;37709;53.480;9.688;2023-04-10T14:05:56;22.50;41.00
2407;DHT22;37709;53.480;9.688;2023-04-10T14:08:23;22.50;41.50
2407;DHT22;37709;53.480;9.688;2023-04-10T14:10:50;22.20;42.10
2407;DHT22;37709;53.480;9.688;2023-04-10T14:13:19;21.90;42.00
2407;DHT22;37709;53.480;9.688;2023-04-10T14:15:46;22.30;41.90
2407;DHT22;37709;53.480;9.688;2023-04-10T14:18:14;22.70;41.00
2407;DHT22;37709;53.480;9.688;2023-04-10T14:20:44;23.10;41.00
2407;DHT22;37709;53.480;9.688;2023-04-10T14:23:11;23.30;40.70
2407;DHT22;37709;53.480;9.688;2023-04-10T14:25:45;23.50;41.00
2407;DHT22;37709;53.480;9.688;2023-04-10T14:28:12;23.80;41.10
2407;DHT22;37709;53.480;9.688;2023-04-10T14:30:44;22.80;40.60
2407;DHT22;37709;53.480;9.688;2023-04-10T14:33:11;21.90;42.00
2407;DHT22;37709;53.480;9.688;2023-04-10T14:35:43;21.50;42.70
2407;DHT22;37709;53.480;9.688;2023-04-10T14:38:11;21.30;43.30
2407;DHT22;37709;53.480;9.688;2023-04-10T14:40:38;21.30;43.50
2407;DHT22;37709;53.480;9.688;2023-04-10T14:43:10;21.30;43.50
2407;DHT22;37709;53.480;9.688;2023-04-10T14:45:37;21.00;43.90
2407;DHT22;37709;53.480;9.688;2023-04-10T14:48:04;20.90;44.10
2407;DHT22;37709;53.480;9.688;2023-04-10T14:50:32;20.70;44.70
2407;DHT22;37709;53.480;9.688;2023-04-10T14:52:59;20.70;44.50
2407;DHT22;37709;53.480;9.688;2023-04-10T14:55:29;20.30;44.80
2407;DHT22;37709;53.480;9.688;2023-04-10T14:57:57;20.30;45.30
2407;DHT22;37709;53.480;9.688;2023-04-10T15:00:25;20.40;45.70
2407;DHT22;37709;53.480;9.688;2023-04-10T15:02:52;20.40;45.60
2407;DHT22;37709;53.480;9.688;2023-04-10T15:05:21;20.40;45.50
2407;DHT22;37709;53.480;9.688;2023-04-10T15:07:48;20.40;45.40
2407;DHT22;37709;53.480;9.688;2023-04-10T15:10:41;20.60;45.50
2407;DHT22;37709;53.480;9.688;2023-04-10T15:13:09;20.40;44.90
2407;DHT22;37709;53.480;9.688;2023-04-10T15:15:36;20.10;45.60
2407;DHT22;37709;53.480;9.688;2023-04-10T15:18:03;20.20;46.50
2407;DHT22;37709;53.480;9.688;2023-04-10T15:20:30;20.40;45.50
2407;DHT22;37709;53.480;9.688;2023-04-10T15:22:57;20.70;45.10
2407;DHT22;37709;53.480;9.688;2023-04-10T15:25:25;21.20;45.00
2407;DHT22;37709;53.480;9.688;2023-04-10T15:27:56;21.40;44.40
2407;DHT22;37709;53.480;9.688;2023-04-10T15:30:23;21.70;44.10
2407;DHT22;37709;53.480;9.688;2023-04-10T15:32:51;21.70;43.60
2407;DHT22;37709;53.480;9.688;2023-04-10T15:35:19;21.60;43.70
2407;DHT22;37709;53.480;9.688;2023-04-10T15:37:47;21.70;44.30
2407;DHT22;37709;53.480;9.688;2023-04-10T15:40:15;21.70;44.00
2407;DHT22;37709;53.480;9.688;2023-04-10T15:42:43;21.50;44.10
2407;DHT22;37709;53.480;9.688;2023-04-10T15:45:10;21.20;44.20
2407;DHT22;37709;53.480;9.688;2023-04-10T15:47:38;20.90;44.70
2407;DHT22;37709;53.480;9.688;2023-04-10T15:50:05;20.50;45.30
2407;DHT22;37709;53.480;9.688;2023-04-10T15:52:36;19.90;45.50
2407;DHT22;37709;53.480;9.688;2023-04-10T15:55:04;19.50;46.60
2407;DHT22;37709;53.480;9.688;2023-04-10T15:57:31;19.20;46.20
2407;DHT22;37709;53.480;9.688;2023-04-10T15:59:58;18.90;46.20
2407;DHT22;37709;53.480;9.688;2023-04-10T16:02:30;18.80;46.50
2407;DHT22;37709;53.480;9.688;2023-04-10T16:04:58;18.80;53.80
2407;DHT22;37709;53.480;9.688;2023-04-10T16:07:26;18.80;44.90
2407;DHT22;37709;53.480;9.688;2023-04-10T16:09:53;18.80;45.60
2407;DHT22;37709;53.480;9.688;2023-04-10T16:12:22;18.80;45.60
2407;DHT22;37709;53.480;9.688;2023-04-10T16:14:50;18.70;46.10
2407;DHT22;37709;53.480;9.688;2023-04-10T16:17:17;18.60;46.10
2407;DHT22;37709;53.480;9.688;2023-04-10T16:19:45;18.60;45.60
2407;DHT22;37709;53.480;9.688;2023-04-10T16:22:12;18.40;45.10
2407;DHT22;37709;53.480;9.688;2023-04-10T16:24:39;18.30;45.20
2407;DHT22;37709;53.480;9.688;2023-04-10T16:27:06;18.20;45.70
2407;DHT22;37709;53.480;9.688;2023-04-10T16:29:34;18.10;46.20
2407;DHT22;37709;53.480;9.688;2023-04-10T16:32:02;18.00;46.30
2407;DHT22;37709;53.480;9.688;2023-04-10T16:34:29;17.80;46.60
2407;DHT22;37709;53.480;9.688;2023-04-10T16:36:57;17.70;47.10
2407;DHT22;37709;53.480;9.688;2023-04-10T16:39:24;17.50;47.60
2407;DHT22;37709;53.480;9.688;2023-04-10T16:41:52;17.40;47.70
2407;DHT22;37709;53.480;9.688;2023-04-10T16:44:20;17.30;48.10
2407;DHT22;37709;53.480;9.688;2023-04-10T16:46:47;17.20;51.50
2407;DHT22;37709;53.480;9.688;2023-04-10T16:49:15;17.20;48.60
2407;DHT22;37709;53.480;9.688;2023-04-10T16:51:42;17.10;48.80
2407;DHT22;37709;53.480;9.688;2023-04-10T16:54:09;17.10;49.00
2407;DHT22;37709;53.480;9.688;2023-04-10T16:56:36;17.00;49.90
2407;DHT22;37709;53.480;9.688;2023-04-10T16:59:04;17.00;49.70
2407;DHT22;37709;53.480;9.688;2023-04-10T17:01:31;16.90;49.80
2407;DHT22;37709;53.480;9.688;2023-04-10T17:04:01;16.90;50.20
2407;DHT22;37709;53.480;9.688;2023-04-10T17:06:28;16.90;50.60
2407;DHT22;37709;53.480;9.688;2023-04-10T17:08:56;16.80;50.70
2407;DHT22;37709;53.480;9.688;2023-04-10T17:11:24;16.80;50.80
2407;DHT22;37709;53.480;9.688;2023-04-10T17:13:51;16.80;50.90
2407;DHT22;37709;53.480;9.688;2023-04-10T17:16:19;16.70;50.80
2407;DHT22;37709;53.480;9.688;2023-04-10T17:18:46;16.70;50.90
2407;DHT22;37709;53.480;9.688;2023-04-10T17:21:13;16.60;51.10
2407;DHT22;37709;53.480;9.688;2023-04-10T17:23:41;16.50;51.60
2407;DHT22;37709;53.480;9.688;2023-04-10T17:26:13;16.40;51.70
2407;DHT22;37709;53.480;9.688;2023-04-10T17:28:41;16.40;51.40
2407;DHT22;37709;53.480;9.688;2023-04-10T17:31:13;16.40;51.40
2407;DHT22;37709;53.480;9.688;2023-04-10T17:33:41;16.30;51.40
2407;DHT22;37709;53.480;9.688;2023-04-10T17:36:10;16.20;51.60
2407;DHT22;37709;53.480;9.688;2023-04-10T17:38:39;16.20;52.10
2407;DHT22;37709;53.480;9.688;2023-04-10T17:41:08;16.00;52.50
2407;DHT22;37709;53.480;9.688;2023-04-10T17:43:36;16.00;53.00
2407;DHT22;37709;53.480;9.688;2023-04-10T17:46:03;16.00;52.70
2407;DHT22;37709;53.480;9.688;2023-04-10T17:48:31;15.90;52.70
2407;DHT22;37709;53.480;9.688;2023-04-10T17:51:06;15.90;53.00
2407;DHT22;37709;53.480;9.688;2023-04-10T17:53:36;15.90;53.30
2407;DHT22;37709;53.480;9.688;2023-04-10T17:56:03;15.90;53.40
2407;DHT22;37709;53.480;9.688;2023-04-10T17:58:31;15.80;53.50
2407;DHT22;37709;53.480;9.688;2023-04-10T18:00:58;15.80;53.70
2407;DHT22;37709;53.480;9.688;2023-04-10T18:03:25;15.70;54.20
2407;DHT22;37709;53.480;9.688;2023-04-10T18:05:54;15.60;54.30
2407;DHT22;37709;53.480;9.688;2023-04-10T18:08:21;15.60;54.60
2407;DHT22;37709;53.480;9.688;2023-04-10T18:10:49;15.60;54.50
2407;DHT22;37709;53.480;9.688;2023-04-10T18:13:17;15.60;54.50
2407;DHT22;37709;53.480;9.688;2023-04-10T18:15:44;15.50;54.80
2407;DHT22;37709;53.480;9.688;2023-04-10T18:18:11;15.50;55.20
2407;DHT22;37709;53.480;9.688;2023-04-10T18:20:39;15.50;55.20
2407;DHT22;37709;53.480;9.688;2023-04-10T18:23:06;15.50;55.30
2407;DHT22;37709;53.480;9.688;2023-04-10T18:25:34;15.40;55.40
2407;DHT22;37709;53.480;9.688;2023-04-10T18:28:02;15.40;55.70
2407;DHT22;37709;53.480;9.688;2023-04-10T18:30:32;15.30;55.60
2407;DHT22;37709;53.480;9.688;2023-04-10T18:32:59;15.30;55.70
2407;DHT22;37709;53.480;9.688;2023-04-10T18:35:30;15.30;56.00
2407;DHT22;37709;53.480;9.688;2023-04-10T18:37:58;15.20;56.00
2407;DHT22;37709;53.480;9.688;2023-04-10T18:40:25;15.20;56.00
2407;DHT22;37709;53.480;9.688;2023-04-10T18:42:53;15.20;56.10
2407;DHT22;37709;53.480;9.688;2023-04-10T18:45:20;15.20;55.90
2407;DHT22;37709;53.480;9.688;2023-04-10T18:47:47;15.20;55.80
2407;DHT22;37709;53.480;9.688;2023-04-10T18:50:15;15.20;55.70
2407;DHT22;37709;53.480;9.688;2023-04-10T18:52:42;15.20;55.70
2407;DHT22;37709;53.480;9.688;2023-04-10T18:55:09;15.20;55.70
2407;DHT22;37709;53.480;9.688;2023-04-10T18:57:37;15.20;55.70
2407;DHT22;37709;53.480;9.688;2023-04-10T19:00:05;15.20;55.80
2407;DHT22;37709;53.480;9.688;2023-04-10T19:02:34;15.10;55.80
2407;DHT22;37709;53.480;9.688;2023-04-10T19:05:02;15.20;55.80
2407;DHT22;37709;53.480;9.688;2023-04-10T19:07:31;15.20;55.90
2407;DHT22;37709;53.480;9.688;2023-04-10T19:09:58;15.10;56.60
2407;DHT22;37709;53.480;9.688;2023-04-10T19:12:26;15.00;56.50
2407;DHT22;37709;53.480;9.688;2023-04-10T19:14:53;14.90;57.40
2407;DHT22;37709;53.480;9.688;2023-04-10T19:17:21;14.80;57.60
2407;DHT22;37709;53.480;9.688;2023-04-10T19:19:51;14.80;69.10
2407;DHT22;37709;53.480;9.688;2023-04-10T19:22:19;14.90;68.50
2407;DHT22;37709;53.480;9.688;2023-04-10T19:24:46;14.80;68.30
2407;DHT22;37709;53.480;9.688;2023-04-10T19:27:14;14.80;68.30
2407;DHT22;37709;53.480;9.688;2023-04-10T19:29:42;14.80;68.50
2407;DHT22;37709;53.480;9.688;2023-04-10T19:32:10;14.80;68.50
2407;DHT22;37709;53.480;9.688;2023-04-10T19:34:38;14.80;57.20
2407;DHT22;37709;53.480;9.688;2023-04-10T19:37:05;14.80;57.30
2407;DHT22;37709;53.480;9.688;2023-04-10T19:39:32;14.70;57.40
2407;DHT22;37709;53.480;9.688;2023-04-10T19:42:00;14.70;57.80
2407;DHT22;37709;53.480;9.688;2023-04-10T19:44:28;14.70;57.90
2407;DHT22;37709;53.480;9.688;2023-04-10T19:46:55;14.70;58.40
2407;DHT22;37709;53.480;9.688;2023-04-10T19:49:24;14.70;58.30
2407;DHT22;37709;53.480;9.688;2023-04-10T19:51:55;14.70;58.30
2407;DHT22;37709;53.480;9.688;2023-04-10T19:54:23;14.70;58.90
2407;DHT22;37709;53.480;9.688;2023-04-10T19:56:51;14.70;59.90